createdAt,value
2019-03-17T00:03:05.898Z,2.10
2019-03-17T00:08:09.290Z,1.23
2019-03-17T00:13:12.667Z,1.90
2019-03-17T00:18:16.067Z,1.60
2019-03-17T00:23:19.439Z,1.97
2019-03-17T00:28:22.891Z,1.80
2019-03-17T00:33:26.271Z,1.60
2019-03-17T00:38:29.651Z,2.10
2019-03-17T00:43:33.026Z,1.40
2019-03-17T00:48:36.424Z,1.90
2019-03-17T00:53:39.811Z,2.63
2019-03-17T00:58:43.191Z,2.70
2019-03-17T01:03:46.588Z,1.50
2019-03-17T01:08:49.962Z,1.60
2019-03-17T01:13:53.339Z,1.83
2019-03-17T01:18:56.717Z,1.57
2019-03-17T01:24:00.091Z,1.40
2019-03-17T01:29:03.463Z,1.67
2019-03-17T01:34:06.852Z,1.80
2019-03-17T01:39:10.232Z,1.57
2019-03-17T01:44:13.610Z,2.17
2019-03-17T01:49:16.991Z,1.80
2019-03-17T01:54:20.367Z,2.63
2019-03-17T01:59:23.739Z,2.07
2019-03-17T02:04:27.115Z,1.73
2019-03-17T02:09:30.509Z,2.07
2019-03-17T02:14:33.892Z,2.40
2019-03-17T02:19:37.275Z,2.17
2019-03-17T02:24:40.680Z,1.07
2019-03-17T02:29:44.034Z,1.87
2019-03-17T02:34:47.419Z,1.67
2019-03-17T02:39:50.819Z,1.60
2019-03-17T02:44:54.207Z,2.00
2019-03-17T02:49:57.689Z,1.40
2019-03-17T02:55:01.067Z,1.53
2019-03-17T03:00:07.575Z,1.90
2019-03-17T03:05:11.067Z,1.70
2019-03-17T03:10:14.465Z,1.60
2019-03-17T03:15:17.847Z,1.47
2019-03-17T03:20:21.228Z,1.50
2019-03-17T03:25:24.606Z,1.30
2019-03-17T03:30:27.998Z,3.03
2019-03-17T03:35:31.402Z,1.30
2019-03-17T03:40:34.856Z,2.57
2019-03-17T03:45:38.248Z,1.20
2019-03-17T03:50:41.635Z,2.03
2019-03-17T03:55:45.027Z,2.17
2019-03-17T04:00:48.460Z,1.30
2019-03-17T04:05:51.885Z,1.83
2019-03-17T04:10:55.298Z,2.20
2019-03-17T04:15:58.679Z,1.90
2019-03-17T04:21:02.065Z,1.63
2019-03-17T04:26:05.448Z,1.77
2019-03-17T04:31:08.831Z,2.00
2019-03-17T04:36:12.212Z,1.83
2019-03-17T04:41:15.600Z,1.70
2019-03-17T04:46:18.994Z,1.63
2019-03-17T04:51:22.387Z,2.00
2019-03-17T04:56:25.791Z,1.80
2019-03-17T05:01:29.172Z,1.73
2019-03-17T05:06:32.560Z,2.00
2019-03-17T05:11:35.948Z,2.63
2019-03-17T05:16:39.335Z,1.77
2019-03-17T05:21:42.735Z,1.57
2019-03-17T05:26:46.107Z,2.10
2019-03-17T05:31:49.485Z,1.57
2019-03-17T05:37:05.040Z,2.07
2019-03-17T05:41:57.989Z,3.00
2019-03-17T05:47:01.367Z,2.23
2019-03-17T05:52:04.750Z,2.00
2019-03-17T05:57:08.132Z,2.80
2019-03-17T06:02:11.546Z,2.13
2019-03-17T06:07:18.919Z,1.73
2019-03-17T06:12:20.031Z,1.63
2019-03-17T06:17:23.399Z,2.37
2019-03-17T06:22:26.780Z,1.30
2019-03-17T06:27:30.170Z,1.20
2019-03-17T06:32:33.570Z,1.80
2019-03-17T06:37:36.959Z,1.93
2019-03-17T06:42:40.350Z,1.63
2019-03-17T06:47:43.758Z,1.70
2019-03-17T06:52:47.143Z,2.03
2019-03-17T06:57:50.535Z,1.20
2019-03-17T07:02:53.914Z,1.93
2019-03-17T07:07:57.297Z,2.90
2019-03-17T07:13:00.684Z,1.27
2019-03-17T07:18:04.096Z,2.03
2019-03-17T07:23:07.483Z,1.53
2019-03-17T07:28:10.883Z,2.40
2019-03-17T07:33:14.268Z,2.47
2019-03-17T07:38:17.651Z,2.70
2019-03-17T07:43:21.042Z,1.90
2019-03-17T07:48:24.442Z,1.90
2019-03-17T07:53:27.823Z,1.80
2019-03-17T07:58:31.212Z,1.40
2019-03-17T08:03:34.600Z,1.43
2019-03-17T08:08:37.997Z,1.90
2019-03-17T08:13:41.559Z,2.30
2019-03-17T08:18:44.950Z,1.90
2019-03-17T08:23:48.332Z,1.57
2019-03-17T08:28:51.714Z,1.77
2019-03-17T08:33:55.183Z,2.10
2019-03-17T08:38:58.573Z,1.53
2019-03-17T08:44:01.959Z,1.83
2019-03-17T08:49:05.411Z,1.77
2019-03-17T08:54:08.808Z,1.40
2019-03-17T08:59:12.192Z,1.77
2019-03-17T09:04:15.598Z,1.80
2019-03-17T09:09:18.983Z,1.20
2019-03-17T09:14:22.365Z,1.73
2019-03-17T09:19:25.752Z,2.07
2019-03-17T09:24:29.146Z,1.70
2019-03-17T09:29:32.531Z,1.83
2019-03-17T09:34:35.932Z,1.40
2019-03-17T09:39:39.319Z,1.17
2019-03-17T09:44:42.707Z,1.40
2019-03-17T09:49:46.096Z,2.90
2019-03-17T09:54:49.479Z,2.23
2019-03-17T09:59:52.873Z,1.50
2019-03-17T10:04:56.255Z,1.00
2019-03-17T10:09:59.654Z,1.13
2019-03-17T10:15:03.211Z,1.10
2019-03-17T10:20:09.677Z,1.00
2019-03-17T10:25:13.335Z,0.90
2019-03-17T10:30:19.797Z,0.60
2019-03-17T10:35:23.183Z,0.90
2019-03-17T10:40:26.582Z,1.70
2019-03-17T10:45:29.963Z,0.90
2019-03-17T10:50:33.351Z,0.90
2019-03-17T10:55:36.739Z,0.70
2019-03-17T11:00:40.143Z,0.87
2019-03-17T11:05:43.527Z,0.70
2019-03-17T11:10:46.924Z,1.20
2019-03-17T11:15:50.311Z,0.90
2019-03-17T11:20:53.696Z,0.73
2019-03-17T11:25:57.085Z,0.80
2019-03-17T11:31:00.550Z,0.93
2019-03-17T11:36:04.000Z,1.00
2019-03-17T11:41:07.387Z,0.80
2019-03-17T11:46:10.781Z,0.60
2019-03-17T11:51:14.167Z,0.80
2019-03-17T11:56:17.551Z,0.60
2019-03-17T12:01:20.936Z,0.87
2019-03-17T12:06:24.315Z,0.83
2019-03-17T12:11:27.703Z,0.80
2019-03-17T12:16:31.092Z,0.90
2019-03-17T12:21:34.468Z,1.10
2019-03-17T12:26:37.843Z,0.83
2019-03-17T12:31:41.230Z,0.90
2019-03-17T12:36:44.615Z,0.70
2019-03-17T12:41:48.011Z,0.80
2019-03-17T12:46:51.403Z,0.70
2019-03-17T12:51:54.792Z,0.73
2019-03-17T12:56:58.184Z,0.60
2019-03-17T13:02:01.561Z,0.77
2019-03-17T13:07:04.938Z,0.70
2019-03-17T13:12:08.347Z,0.60
2019-03-17T13:17:11.748Z,1.00
2019-03-17T13:22:15.128Z,1.53
2019-03-17T13:27:18.519Z,0.77
2019-03-17T13:32:21.914Z,0.70
2019-03-17T13:37:25.299Z,0.80
2019-03-17T13:42:28.706Z,0.93
2019-03-17T13:47:32.090Z,1.17
2019-03-17T13:52:35.488Z,0.60
2019-03-17T13:57:39.142Z,1.10
2019-03-17T14:02:42.513Z,1.00
2019-03-17T14:07:45.895Z,0.93
2019-03-17T14:12:49.295Z,0.83
2019-03-17T14:17:52.703Z,1.27
2019-03-17T14:22:56.102Z,0.70
2019-03-17T14:27:59.480Z,0.87
2019-03-17T14:33:02.866Z,0.90
2019-03-17T14:38:06.288Z,1.10
2019-03-17T14:43:09.671Z,1.53
2019-03-17T14:48:13.047Z,1.10
2019-03-17T14:53:16.439Z,1.03
2019-03-17T14:58:19.815Z,0.90
2019-03-17T15:03:23.192Z,0.80
2019-03-17T15:08:26.576Z,1.10
2019-03-17T15:13:29.959Z,0.80
2019-03-17T15:18:33.335Z,1.07
2019-03-17T15:23:36.729Z,1.03
2019-03-17T15:28:40.112Z,1.17
2019-03-17T15:33:43.491Z,1.07
2019-03-17T15:38:47.065Z,1.30
2019-03-17T15:43:50.439Z,1.03
2019-03-17T15:48:53.819Z,1.47
2019-03-17T15:53:57.220Z,0.90
2019-03-17T15:59:00.595Z,1.10
2019-03-17T16:04:03.995Z,0.80
2019-03-17T16:09:08.242Z,1.17
2019-03-17T16:14:11.628Z,0.80
2019-03-17T16:19:15.019Z,0.90
2019-03-17T16:24:18.396Z,1.00
2019-03-17T16:29:21.809Z,0.90
2019-03-17T16:34:25.192Z,2.27
2019-03-17T16:39:28.578Z,1.70
2019-03-17T16:44:31.973Z,1.00
2019-03-17T16:49:35.367Z,0.63
2019-03-17T16:54:38.758Z,0.60
2019-03-17T16:59:42.143Z,0.50
2019-03-17T17:04:45.531Z,0.63
2019-03-17T17:09:48.924Z,0.50
2019-03-17T17:14:52.315Z,0.80
2019-03-17T17:19:55.701Z,1.17
2019-03-17T17:24:59.087Z,3.30
2019-03-17T17:30:02.760Z,0.90
2019-03-17T17:35:06.897Z,0.63
2019-03-17T17:40:21.297Z,1.00
2019-03-17T17:45:25.528Z,0.73
2019-03-17T17:50:32.426Z,0.70
2019-03-17T17:55:35.824Z,0.57
2019-03-17T18:00:46.991Z,0.60
2019-03-17T18:05:50.367Z,0.80
2019-03-17T18:10:53.761Z,0.60
2019-03-17T18:15:57.146Z,0.70
2019-03-17T18:21:00.539Z,0.60
2019-03-17T18:26:03.911Z,0.70
2019-03-17T18:31:07.309Z,0.60
2019-03-17T18:36:10.712Z,0.63
2019-03-17T18:41:14.182Z,0.50
2019-03-17T18:46:17.584Z,0.90
2019-03-17T18:51:20.969Z,0.70
2019-03-17T18:56:24.351Z,0.60
2019-03-17T19:01:27.739Z,0.70
2019-03-17T19:06:31.161Z,0.87
2019-03-17T19:11:34.548Z,0.60
2019-03-17T19:16:37.931Z,0.60
2019-03-17T19:21:41.316Z,0.60
2019-03-17T19:26:44.698Z,0.90
2019-03-17T19:31:48.087Z,0.50
2019-03-17T19:36:51.471Z,0.70
2019-03-17T19:41:54.891Z,0.70
2019-03-17T19:46:58.268Z,0.90
2019-03-17T19:52:01.664Z,0.70
2019-03-17T19:57:05.062Z,0.50
2019-03-17T20:02:08.443Z,0.70
2019-03-17T20:07:11.810Z,0.63
2019-03-17T20:12:15.196Z,0.40
2019-03-17T20:17:18.610Z,0.60
2019-03-17T20:22:21.995Z,0.50
2019-03-17T20:27:25.379Z,0.70
2019-03-17T20:32:28.755Z,0.57
2019-03-17T20:37:32.139Z,0.50
2019-03-17T20:42:35.580Z,1.10
2019-03-17T20:47:38.942Z,0.50
2019-03-17T20:52:42.337Z,0.80
2019-03-17T20:57:45.795Z,0.60
2019-03-17T21:02:49.225Z,0.57
2019-03-17T21:07:52.639Z,0.60
2019-03-17T21:12:56.096Z,0.43
2019-03-17T21:17:59.497Z,0.57
2019-03-17T21:23:03.731Z,0.60
2019-03-17T21:28:07.120Z,0.60
2019-03-17T21:33:10.504Z,0.53
2019-03-17T21:38:13.931Z,0.50
2019-03-17T21:43:17.299Z,0.50
2019-03-17T21:48:20.703Z,0.60
2019-03-17T21:53:24.103Z,0.57
2019-03-17T21:58:27.475Z,0.70
2019-03-17T22:03:30.854Z,0.97
2019-03-17T22:08:34.255Z,0.53
2019-03-17T22:13:37.640Z,0.60
2019-03-17T22:18:41.061Z,0.90
2019-03-17T22:23:44.463Z,0.70
2019-03-17T22:28:47.835Z,0.50
2019-03-17T22:33:51.211Z,0.40
2019-03-17T22:38:54.597Z,0.60
2019-03-17T22:43:57.973Z,0.70
2019-03-17T22:49:01.363Z,0.70
2019-03-17T22:54:04.752Z,0.70
2019-03-17T22:59:08.127Z,0.50
2019-03-17T23:04:11.505Z,1.00
2019-03-17T23:09:14.891Z,0.80
2019-03-17T23:14:18.271Z,0.60
2019-03-17T23:19:21.660Z,0.70
2019-03-17T23:24:25.071Z,0.50
2019-03-17T23:29:28.463Z,0.80
2019-03-17T23:34:31.842Z,0.70
2019-03-17T23:39:35.224Z,0.50
2019-03-17T23:44:48.572Z,0.70
2019-03-17T23:49:43.755Z,0.90
2019-03-17T23:54:47.138Z,0.50
2019-03-17T23:59:50.532Z,0.83
